sensor_id;sensor_type;location;lat;lon;timestamp;P1;durP1;ratioP1;P2;durP2;ratioP2
43345;SDS011;28937;51.160;4.146;2023-04-24T00:02:10;13.60;;;9.65;;
43345;SDS011;28937;51.160;4.146;2023-04-24T00:04:37;10.85;;;8.55;;
43345;SDS011;28937;51.160;4.146;2023-04-24T00:07:06;11.38;;;9.15;;
43345;SDS011;28937;51.160;4.146;2023-04-24T00:09:33;11.63;;;7.75;;
43345;SDS011;28937;51.160;4.146;2023-04-24T00:11:58;11.70;;;8.60;;
43345;SDS011;28937;51.160;4.146;2023-04-24T00:14:24;9.63;;;7.43;;
43345;SDS011;28937;51.160;4.146;2023-04-24T00:16:50;13.13;;;8.30;;
43345;SDS011;28937;51.160;4.146;2023-04-24T00:19:16;10.68;;;7.60;;
43345;SDS011;28937;51.160;4.146;2023-04-24T00:21:42;8.45;;;7.20;;
43345;SDS011;28937;51.160;4.146;2023-04-24T00:24:07;11.90;;;7.60;;
43345;SDS011;28937;51.160;4.146;2023-04-24T00:26:34;11.77;;;7.65;;
43345;SDS011;28937;51.160;4.146;2023-04-24T00:28:59;11.20;;;8.27;;
43345;SDS011;28937;51.160;4.146;2023-04-24T00:31:25;13.75;;;8.57;;
43345;SDS011;28937;51.160;4.146;2023-04-24T00:33:51;12.35;;;9.60;;
43345;SDS011;28937;51.160;4.146;2023-04-24T00:36:16;11.73;;;10.10;;
43345;SDS011;28937;51.160;4.146;2023-04-24T00:38:44;12.60;;;8.98;;
43345;SDS011;28937;51.160;4.146;2023-04-24T00:41:10;14.77;;;9.70;;
43345;SDS011;28937;51.160;4.146;2023-04-24T00:43:36;12.40;;;9.23;;
43345;SDS011;28937;51.160;4.146;2023-04-24T00:46:01;11.10;;;9.02;;
43345;SDS011;28937;51.160;4.146;2023-04-24T00:48:27;12.98;;;10.10;;
43345;SDS011;28937;51.160;4.146;2023-04-24T00:50:53;12.18;;;8.98;;
43345;SDS011;28937;51.160;4.146;2023-04-24T00:53:19;9.88;;;8.82;;
43345;SDS011;28937;51.160;4.146;2023-04-24T00:55:44;10.00;;;9.00;;
43345;SDS011;28937;51.160;4.146;2023-04-24T00:58:11;10.27;;;9.27;;
43345;SDS011;28937;51.160;4.146;2023-04-24T01:00:37;12.43;;;9.75;;
43345;SDS011;28937;51.160;4.146;2023-04-24T01:03:04;10.48;;;9.38;;
43345;SDS011;28937;51.160;4.146;2023-04-24T01:05:30;10.38;;;8.98;;
43345;SDS011;28937;51.160;4.146;2023-04-24T01:07:57;10.70;;;8.98;;
43345;SDS011;28937;51.160;4.146;2023-04-24T01:10:24;11.30;;;7.35;;
43345;SDS011;28937;51.160;4.146;2023-04-24T01:12:52;11.05;;;8.52;;
43345;SDS011;28937;51.160;4.146;2023-04-24T01:15:18;8.93;;;7.95;;
43345;SDS011;28937;51.160;4.146;2023-04-24T01:17:44;11.50;;;8.15;;
43345;SDS011;28937;51.160;4.146;2023-04-24T01:20:10;11.32;;;7.13;;
43345;SDS011;28937;51.160;4.146;2023-04-24T01:22:35;11.95;;;7.78;;
43345;SDS011;28937;51.160;4.146;2023-04-24T01:25:02;9.23;;;7.50;;
43345;SDS011;28937;51.160;4.146;2023-04-24T01:27:28;7.90;;;6.68;;
43345;SDS011;28937;51.160;4.146;2023-04-24T01:29:54;10.05;;;6.60;;
43345;SDS011;28937;51.160;4.146;2023-04-24T01:32:19;8.75;;;6.88;;
43345;SDS011;28937;51.160;4.146;2023-04-24T01:34:45;7.20;;;6.10;;
43345;SDS011;28937;51.160;4.146;2023-04-24T01:37:12;7.78;;;6.20;;
43345;SDS011;28937;51.160;4.146;2023-04-24T01:39:38;6.65;;;5.97;;
43345;SDS011;28937;51.160;4.146;2023-04-24T01:42:04;7.35;;;5.53;;
43345;SDS011;28937;51.160;4.146;2023-04-24T01:44:30;8.88;;;5.78;;
43345;SDS011;28937;51.160;4.146;2023-04-24T01:46:56;7.97;;;5.63;;
43345;SDS011;28937;51.160;4.146;2023-04-24T01:49:22;7.70;;;5.80;;
43345;SDS011;28937;51.160;4.146;2023-04-24T01:51:48;8.30;;;5.80;;
43345;SDS011;28937;51.160;4.146;2023-04-24T01:54:13;6.03;;;5.40;;
43345;SDS011;28937;51.160;4.146;2023-04-24T01:56:40;6.28;;;5.53;;
43345;SDS011;28937;51.160;4.146;2023-04-24T01:59:07;6.47;;;5.85;;
43345;SDS011;28937;51.160;4.146;2023-04-24T02:01:35;8.98;;;7.00;;
43345;SDS011;28937;51.160;4.146;2023-04-24T02:04:02;8.98;;;6.88;;
43345;SDS011;28937;51.160;4.146;2023-04-24T02:06:28;9.15;;;6.80;;
43345;SDS011;28937;51.160;4.146;2023-04-24T02:08:53;9.18;;;7.60;;
43345;SDS011;28937;51.160;4.146;2023-04-24T02:11:19;9.18;;;7.35;;
43345;SDS011;28937;51.160;4.146;2023-04-24T02:13:45;8.13;;;7.25;;
43345;SDS011;28937;51.160;4.146;2023-04-24T02:16:10;9.82;;;8.45;;
43345;SDS011;28937;51.160;4.146;2023-04-24T02:18:36;8.73;;;7.75;;
43345;SDS011;28937;51.160;4.146;2023-04-24T02:21:01;10.10;;;9.05;;
43345;SDS011;28937;51.160;4.146;2023-04-24T02:23:27;10.10;;;8.85;;
43345;SDS011;28937;51.160;4.146;2023-04-24T02:25:53;8.57;;;7.78;;
43345;SDS011;28937;51.160;4.146;2023-04-24T02:28:18;9.13;;;7.90;;
43345;SDS011;28937;51.160;4.146;2023-04-24T02:30:44;10.15;;;9.15;;
43345;SDS011;28937;51.160;4.146;2023-04-24T02:33:10;9.20;;;8.38;;
43345;SDS011;28937;51.160;4.146;2023-04-24T02:35:36;8.60;;;7.75;;
43345;SDS011;28937;51.160;4.146;2023-04-24T02:38:02;10.50;;;8.07;;
43345;SDS011;28937;51.160;4.146;2023-04-24T02:40:28;9.98;;;8.98;;
43345;SDS011;28937;51.160;4.146;2023-04-24T02:42:54;8.65;;;7.85;;
43345;SDS011;28937;51.160;4.146;2023-04-24T02:45:19;9.20;;;8.35;;
43345;SDS011;28937;51.160;4.146;2023-04-24T02:47:45;9.00;;;8.15;;
43345;SDS011;28937;51.160;4.146;2023-04-24T02:50:11;8.63;;;7.93;;
43345;SDS011;28937;51.160;4.146;2023-04-24T02:52:36;9.05;;;8.30;;
43345;SDS011;28937;51.160;4.146;2023-04-24T02:55:02;8.23;;;7.43;;
43345;SDS011;28937;51.160;4.146;2023-04-24T02:57:27;9.10;;;8.20;;
43345;SDS011;28937;51.160;4.146;2023-04-24T02:59:53;8.82;;;7.93;;
43345;SDS011;28937;51.160;4.146;2023-04-24T03:02:19;9.27;;;8.48;;
43345;SDS011;28937;51.160;4.146;2023-04-24T03:04:45;9.50;;;8.68;;
43345;SDS011;28937;51.160;4.146;2023-04-24T03:07:13;10.57;;;9.50;;
43345;SDS011;28937;51.160;4.146;2023-04-24T03:09:39;10.35;;;9.45;;
43345;SDS011;28937;51.160;4.146;2023-04-24T03:12:05;10.18;;;9.18;;
43345;SDS011;28937;51.160;4.146;2023-04-24T03:14:31;11.25;;;9.48;;
43345;SDS011;28937;51.160;4.146;2023-04-24T03:16:57;10.45;;;9.00;;
43345;SDS011;28937;51.160;4.146;2023-04-24T03:19:22;9.75;;;8.75;;
43345;SDS011;28937;51.160;4.146;2023-04-24T03:21:48;9.02;;;7.80;;
43345;SDS011;28937;51.160;4.146;2023-04-24T03:24:14;8.55;;;7.07;;
43345;SDS011;28937;51.160;4.146;2023-04-24T03:26:39;6.97;;;5.97;;
43345;SDS011;28937;51.160;4.146;2023-04-24T03:29:05;6.22;;;5.07;;
43345;SDS011;28937;51.160;4.146;2023-04-24T03:31:30;6.65;;;3.80;;
43345;SDS011;28937;51.160;4.146;2023-04-24T03:33:56;7.93;;;3.15;;
43345;SDS011;28937;51.160;4.146;2023-04-24T03:36:22;4.60;;;2.28;;
43345;SDS011;28937;51.160;4.146;2023-04-24T03:38:47;4.68;;;2.20;;
43345;SDS011;28937;51.160;4.146;2023-04-24T03:41:13;3.50;;;2.20;;
43345;SDS011;28937;51.160;4.146;2023-04-24T03:43:38;5.97;;;2.08;;
43345;SDS011;28937;51.160;4.146;2023-04-24T03:46:04;3.03;;;2.05;;
43345;SDS011;28937;51.160;4.146;2023-04-24T03:48:30;4.65;;;2.30;;
43345;SDS011;28937;51.160;4.146;2023-04-24T03:50:55;7.30;;;2.15;;
43345;SDS011;28937;51.160;4.146;2023-04-24T03:53:21;6.65;;;2.15;;
43345;SDS011;28937;51.160;4.146;2023-04-24T03:55:46;4.70;;;2.42;;
43345;SDS011;28937;51.160;4.146;2023-04-24T03:58:12;4.35;;;2.80;;
43345;SDS011;28937;51.160;4.146;2023-04-24T04:00:41;7.82;;;2.75;;
43345;SDS011;28937;51.160;4.146;2023-04-24T04:03:06;5.78;;;3.17;;
43345;SDS011;28937;51.160;4.146;2023-04-24T04:05:32;4.95;;;3.10;;
43345;SDS011;28937;51.160;4.146;2023-04-24T04:07:58;6.70;;;3.55;;
43345;SDS011;28937;51.160;4.146;2023-04-24T04:10:23;4.65;;;3.20;;
43345;SDS011;28937;51.160;4.146;2023-04-24T04:12:49;6.03;;;4.07;;
43345;SDS011;28937;51.160;4.146;2023-04-24T04:15:14;6.78;;;4.00;;
43345;SDS011;28937;51.160;4.146;2023-04-24T04:17:40;6.38;;;3.97;;
43345;SDS011;28937;51.160;4.146;2023-04-24T04:20:06;5.97;;;4.20;;
43345;SDS011;28937;51.160;4.146;2023-04-24T04:22:35;9.40;;;5.00;;
43345;SDS011;28937;51.160;4.146;2023-04-24T04:25:01;7.68;;;5.13;;
43345;SDS011;28937;51.160;4.146;2023-04-24T04:27:27;9.45;;;6.15;;
43345;SDS011;28937;51.160;4.146;2023-04-24T04:29:54;10.80;;;6.32;;
43345;SDS011;28937;51.160;4.146;2023-04-24T04:32:21;11.40;;;6.90;;
43345;SDS011;28937;51.160;4.146;2023-04-24T04:34:47;10.18;;;7.10;;
43345;SDS011;28937;51.160;4.146;2023-04-24T04:37:14;8.60;;;5.57;;
43345;SDS011;28937;51.160;4.146;2023-04-24T04:39:40;12.60;;;7.28;;
43345;SDS011;28937;51.160;4.146;2023-04-24T04:42:05;11.45;;;7.70;;
43345;SDS011;28937;51.160;4.146;2023-04-24T04:44:31;9.77;;;6.32;;
43345;SDS011;28937;51.160;4.146;2023-04-24T04:46:57;7.05;;;6.18;;
43345;SDS011;28937;51.160;4.146;2023-04-24T04:49:25;9.15;;;6.63;;
43345;SDS011;28937;51.160;4.146;2023-04-24T04:51:53;10.15;;;5.20;;
43345;SDS011;28937;51.160;4.146;2023-04-24T04:54:18;10.43;;;7.13;;
43345;SDS011;28937;51.160;4.146;2023-04-24T04:56:44;10.07;;;7.20;;
43345;SDS011;28937;51.160;4.146;2023-04-24T04:59:10;11.43;;;6.80;;
43345;SDS011;28937;51.160;4.146;2023-04-24T05:01:36;12.57;;;5.70;;
43345;SDS011;28937;51.160;4.146;2023-04-24T05:04:01;8.40;;;5.68;;
43345;SDS011;28937;51.160;4.146;2023-04-24T05:06:27;12.77;;;7.05;;
43345;SDS011;28937;51.160;4.146;2023-04-24T05:08:52;9.27;;;6.53;;
43345;SDS011;28937;51.160;4.146;2023-04-24T05:11:22;14.43;;;7.20;;
43345;SDS011;28937;51.160;4.146;2023-04-24T05:13:47;10.70;;;6.20;;
43345;SDS011;28937;51.160;4.146;2023-04-24T05:16:13;12.68;;;6.85;;
43345;SDS011;28937;51.160;4.146;2023-04-24T05:18:39;11.20;;;6.10;;
43345;SDS011;28937;51.160;4.146;2023-04-24T05:21:05;15.90;;;7.78;;
43345;SDS011;28937;51.160;4.146;2023-04-24T05:23:30;13.63;;;6.55;;
43345;SDS011;28937;51.160;4.146;2023-04-24T05:25:56;14.45;;;6.70;;
43345;SDS011;28937;51.160;4.146;2023-04-24T05:28:22;12.35;;;6.35;;
43345;SDS011;28937;51.160;4.146;2023-04-24T05:30:48;12.52;;;5.93;;
43345;SDS011;28937;51.160;4.146;2023-04-24T05:33:13;9.00;;;5.95;;
43345;SDS011;28937;51.160;4.146;2023-04-24T05:35:42;10.90;;;6.50;;
43345;SDS011;28937;51.160;4.146;2023-04-24T05:38:12;9.35;;;6.07;;
43345;SDS011;28937;51.160;4.146;2023-04-24T05:40:38;10.88;;;6.95;;
43345;SDS011;28937;51.160;4.146;2023-04-24T05:43:04;10.90;;;6.75;;
43345;SDS011;28937;51.160;4.146;2023-04-24T05:45:29;10.98;;;6.82;;
43345;SDS011;28937;51.160;4.146;2023-04-24T05:47:55;12.90;;;7.10;;
43345;SDS011;28937;51.160;4.146;2023-04-24T05:50:21;10.05;;;6.53;;
43345;SDS011;28937;51.160;4.146;2023-04-24T05:52:46;11.43;;;7.50;;
43345;SDS011;28937;51.160;4.146;2023-04-24T05:55:12;13.05;;;7.78;;
43345;SDS011;28937;51.160;4.146;2023-04-24T05:57:38;13.00;;;7.80;;
43345;SDS011;28937;51.160;4.146;2023-04-24T06:00:04;13.43;;;8.88;;
43345;SDS011;28937;51.160;4.146;2023-04-24T06:02:31;12.30;;;8.07;;
43345;SDS011;28937;51.160;4.146;2023-04-24T06:04:58;13.52;;;7.93;;
43345;SDS011;28937;51.160;4.146;2023-04-24T06:07:24;13.63;;;7.78;;
43345;SDS011;28937;51.160;4.146;2023-04-24T06:09:51;11.52;;;7.75;;
43345;SDS011;28937;51.160;4.146;2023-04-24T06:12:17;16.02;;;5.93;;
43345;SDS011;28937;51.160;4.146;2023-04-24T06:14:43;13.65;;;6.82;;
43345;SDS011;28937;51.160;4.146;2023-04-24T06:17:08;15.35;;;8.13;;
43345;SDS011;28937;51.160;4.146;2023-04-24T06:19:34;11.85;;;6.40;;
43345;SDS011;28937;51.160;4.146;2023-04-24T06:22:00;16.90;;;6.88;;
43345;SDS011;28937;51.160;4.146;2023-04-24T06:24:29;12.50;;;7.43;;
43345;SDS011;28937;51.160;4.146;2023-04-24T06:26:54;15.85;;;7.47;;
43345;SDS011;28937;51.160;4.146;2023-04-24T06:29:22;12.32;;;6.82;;
43345;SDS011;28937;51.160;4.146;2023-04-24T06:31:47;14.07;;;6.68;;
43345;SDS011;28937;51.160;4.146;2023-04-24T06:34:13;12.43;;;6.10;;
43345;SDS011;28937;51.160;4.146;2023-04-24T06:36:39;15.00;;;6.43;;
43345;SDS011;28937;51.160;4.146;2023-04-24T06:39:04;17.85;;;6.97;;
43345;SDS011;28937;51.160;4.146;2023-04-24T06:41:30;11.13;;;5.60;;
43345;SDS011;28937;51.160;4.146;2023-04-24T06:43:55;11.93;;;5.40;;
43345;SDS011;28937;51.160;4.146;2023-04-24T06:46:21;10.45;;;5.20;;
43345;SDS011;28937;51.160;4.146;2023-04-24T06:48:48;11.73;;;5.40;;
43345;SDS011;28937;51.160;4.146;2023-04-24T06:51:15;8.52;;;4.68;;
43345;SDS011;28937;51.160;4.146;2023-04-24T06:53:42;12.00;;;4.47;;
43345;SDS011;28937;51.160;4.146;2023-04-24T06:56:08;9.60;;;4.40;;
43345;SDS011;28937;51.160;4.146;2023-04-24T06:58:33;8.70;;;3.92;;
43345;SDS011;28937;51.160;4.146;2023-04-24T07:00:59;12.27;;;4.88;;
43345;SDS011;28937;51.160;4.146;2023-04-24T07:03:24;7.95;;;3.53;;
43345;SDS011;28937;51.160;4.146;2023-04-24T07:05:50;9.35;;;4.25;;
43345;SDS011;28937;51.160;4.146;2023-04-24T07:08:16;11.13;;;5.35;;
43345;SDS011;28937;51.160;4.146;2023-04-24T07:10:46;12.15;;;4.30;;
43345;SDS011;28937;51.160;4.146;2023-04-24T07:13:13;13.52;;;4.65;;
43345;SDS011;28937;51.160;4.146;2023-04-24T07:15:39;10.10;;;3.75;;
43345;SDS011;28937;51.160;4.146;2023-04-24T07:18:06;8.10;;;3.78;;
43345;SDS011;28937;51.160;4.146;2023-04-24T07:20:31;11.23;;;4.00;;
43345;SDS011;28937;51.160;4.146;2023-04-24T07:22:58;12.25;;;3.80;;
43345;SDS011;28937;51.160;4.146;2023-04-24T07:25:23;10.05;;;4.05;;
43345;SDS011;28937;51.160;4.146;2023-04-24T07:27:49;7.43;;;3.42;;
43345;SDS011;28937;51.160;4.146;2023-04-24T07:30:15;10.45;;;4.20;;
43345;SDS011;28937;51.160;4.146;2023-04-24T07:32:40;11.25;;;4.03;;
43345;SDS011;28937;51.160;4.146;2023-04-24T07:35:06;14.90;;;3.70;;
43345;SDS011;28937;51.160;4.146;2023-04-24T07:37:32;9.02;;;3.40;;
43345;SDS011;28937;51.160;4.146;2023-04-24T07:39:57;17.30;;;4.20;;
43345;SDS011;28937;51.160;4.146;2023-04-24T07:42:23;14.88;;;4.07;;
43345;SDS011;28937;51.160;4.146;2023-04-24T07:44:49;12.27;;;3.75;;
43345;SDS011;28937;51.160;4.146;2023-04-24T07:47:16;15.85;;;3.65;;
43345;SDS011;28937;51.160;4.146;2023-04-24T07:49:41;9.77;;;4.30;;
43345;SDS011;28937;51.160;4.146;2023-04-24T07:52:07;12.00;;;4.40;;
43345;SDS011;28937;51.160;4.146;2023-04-24T07:54:33;10.30;;;3.80;;
43345;SDS011;28937;51.160;4.146;2023-04-24T07:56:59;13.23;;;4.43;;
43345;SDS011;28937;51.160;4.146;2023-04-24T07:59:25;11.43;;;4.18;;
43345;SDS011;28937;51.160;4.146;2023-04-24T08:01:51;8.85;;;3.38;;
43345;SDS011;28937;51.160;4.146;2023-04-24T08:04:16;12.73;;;4.35;;
43345;SDS011;28937;51.160;4.146;2023-04-24T08:06:43;13.77;;;4.28;;
43345;SDS011;28937;51.160;4.146;2023-04-24T08:09:09;10.25;;;3.63;;
43345;SDS011;28937;51.160;4.146;2023-04-24T08:11:34;12.40;;;4.40;;
43345;SDS011;28937;51.160;4.146;2023-04-24T08:14:00;10.75;;;3.80;;
43345;SDS011;28937;51.160;4.146;2023-04-24T08:16:26;10.75;;;3.90;;
43345;SDS011;28937;51.160;4.146;2023-04-24T08:18:52;16.70;;;4.20;;
43345;SDS011;28937;51.160;4.146;2023-04-24T08:21:18;11.02;;;3.90;;
43345;SDS011;28937;51.160;4.146;2023-04-24T08:23:44;10.10;;;3.80;;
43345;SDS011;28937;51.160;4.146;2023-04-24T08:26:11;11.90;;;3.53;;
43345;SDS011;28937;51.160;4.146;2023-04-24T08:28:37;10.50;;;3.38;;
43345;SDS011;28937;51.160;4.146;2023-04-24T08:31:03;11.98;;;3.10;;
43345;SDS011;28937;51.160;4.146;2023-04-24T08:33:29;11.55;;;3.53;;
43345;SDS011;28937;51.160;4.146;2023-04-24T08:36:03;12.63;;;3.47;;
43345;SDS011;28937;51.160;4.146;2023-04-24T08:38:29;11.68;;;3.83;;
43345;SDS011;28937;51.160;4.146;2023-04-24T08:40:56;11.25;;;3.78;;
43345;SDS011;28937;51.160;4.146;2023-04-24T08:43:23;12.30;;;4.05;;
43345;SDS011;28937;51.160;4.146;2023-04-24T08:45:49;10.93;;;4.10;;
43345;SDS011;28937;51.160;4.146;2023-04-24T08:48:15;16.42;;;4.47;;
43345;SDS011;28937;51.160;4.146;2023-04-24T08:50:42;10.77;;;4.05;;
43345;SDS011;28937;51.160;4.146;2023-04-24T08:53:09;8.90;;;3.38;;
43345;SDS011;28937;51.160;4.146;2023-04-24T08:55:36;11.60;;;3.53;;
43345;SDS011;28937;51.160;4.146;2023-04-24T08:58:02;11.60;;;3.60;;
43345;SDS011;28937;51.160;4.146;2023-04-24T09:00:28;9.40;;;3.33;;
43345;SDS011;28937;51.160;4.146;2023-04-24T09:02:54;9.50;;;3.50;;
43345;SDS011;28937;51.160;4.146;2023-04-24T09:05:20;12.55;;;3.72;;
43345;SDS011;28937;51.160;4.146;2023-04-24T09:07:52;12.65;;;3.83;;
43345;SDS011;28937;51.160;4.146;2023-04-24T09:10:20;9.25;;;3.40;;
43345;SDS011;28937;51.160;4.146;2023-04-24T09:12:50;10.65;;;2.92;;
43345;SDS011;28937;51.160;4.146;2023-04-24T09:15:16;11.43;;;2.95;;
43345;SDS011;28937;51.160;4.146;2023-04-24T09:17:43;10.90;;;3.22;;
43345;SDS011;28937;51.160;4.146;2023-04-24T09:20:09;7.43;;;3.10;;
43345;SDS011;28937;51.160;4.146;2023-04-24T09:22:36;10.02;;;3.10;;
43345;SDS011;28937;51.160;4.146;2023-04-24T09:25:08;8.55;;;3.00;;
43345;SDS011;28937;51.160;4.146;2023-04-24T09:27:36;8.93;;;3.13;;
43345;SDS011;28937;51.160;4.146;2023-04-24T09:30:08;9.65;;;3.28;;
43345;SDS011;28937;51.160;4.146;2023-04-24T09:32:35;9.18;;;2.63;;
43345;SDS011;28937;51.160;4.146;2023-04-24T09:35:08;5.82;;;2.33;;
43345;SDS011;28937;51.160;4.146;2023-04-24T09:37:44;7.35;;;2.45;;
43345;SDS011;28937;51.160;4.146;2023-04-24T09:40:12;7.80;;;2.80;;
43345;SDS011;28937;51.160;4.146;2023-04-24T09:42:43;11.13;;;3.28;;
43345;SDS011;28937;51.160;4.146;2023-04-24T09:45:16;8.70;;;2.80;;
43345;SDS011;28937;51.160;4.146;2023-04-24T09:47:42;7.85;;;2.65;;
43345;SDS011;28937;51.160;4.146;2023-04-24T09:50:12;6.95;;;2.80;;
43345;SDS011;28937;51.160;4.146;2023-04-24T09:52:45;9.02;;;2.63;;
43345;SDS011;28937;51.160;4.146;2023-04-24T09:55:21;11.68;;;2.50;;
43345;SDS011;28937;51.160;4.146;2023-04-24T09:57:47;12.02;;;3.50;;
43345;SDS011;28937;51.160;4.146;2023-04-24T10:00:29;11.32;;;3.33;;
43345;SDS011;28937;51.160;4.146;2023-04-24T10:05:23;11.45;;;3.08;;
43345;SDS011;28937;51.160;4.146;2023-04-24T10:07:50;7.68;;;2.60;;
43345;SDS011;28937;51.160;4.146;2023-04-24T10:10:16;14.40;;;3.03;;
43345;SDS011;28937;51.160;4.146;2023-04-24T10:12:42;5.35;;;2.25;;
43345;SDS011;28937;51.160;4.146;2023-04-24T10:15:09;6.13;;;2.35;;
43345;SDS011;28937;51.160;4.146;2023-04-24T10:17:37;13.18;;;3.17;;
43345;SDS011;28937;51.160;4.146;2023-04-24T10:20:04;9.68;;;2.85;;
43345;SDS011;28937;51.160;4.146;2023-04-24T10:22:31;8.77;;;2.83;;
43345;SDS011;28937;51.160;4.146;2023-04-24T10:24:57;10.88;;;3.35;;
43345;SDS011;28937;51.160;4.146;2023-04-24T10:27:24;9.10;;;3.03;;
43345;SDS011;28937;51.160;4.146;2023-04-24T10:29:52;9.90;;;3.40;;
43345;SDS011;28937;51.160;4.146;2023-04-24T10:32:18;12.85;;;3.95;;
43345;SDS011;28937;51.160;4.146;2023-04-24T10:34:44;9.85;;;3.30;;
43345;SDS011;28937;51.160;4.146;2023-04-24T10:37:10;10.45;;;4.03;;
43345;SDS011;28937;51.160;4.146;2023-04-24T10:39:35;8.23;;;3.38;;
43345;SDS011;28937;51.160;4.146;2023-04-24T10:42:02;9.98;;;4.10;;
43345;SDS011;28937;51.160;4.146;2023-04-24T10:44:40;23.10;;;8.93;;
43345;SDS011;28937;51.160;4.146;2023-04-24T10:47:06;24.95;;;10.23;;
43345;SDS011;28937;51.160;4.146;2023-04-24T10:52:04;33.95;;;16.08;;
43345;SDS011;28937;51.160;4.146;2023-04-24T10:54:46;42.53;;;19.27;;
43345;SDS011;28937;51.160;4.146;2023-04-24T10:59:51;38.45;;;16.92;;
43345;SDS011;28937;51.160;4.146;2023-04-24T11:02:37;26.77;;;11.63;;
43345;SDS011;28937;51.160;4.146;2023-04-24T11:05:05;15.52;;;7.47;;
43345;SDS011;28937;51.160;4.146;2023-04-24T11:10:37;14.05;;;6.20;;
43345;SDS011;28937;51.160;4.146;2023-04-24T11:13:04;13.10;;;5.05;;
43345;SDS011;28937;51.160;4.146;2023-04-24T11:15:30;9.13;;;3.58;;
43345;SDS011;28937;51.160;4.146;2023-04-24T11:17:55;8.02;;;3.92;;
43345;SDS011;28937;51.160;4.146;2023-04-24T11:20:22;15.95;;;6.97;;
43345;SDS011;28937;51.160;4.146;2023-04-24T11:22:49;17.08;;;7.32;;
43345;SDS011;28937;51.160;4.146;2023-04-24T11:25:19;12.82;;;7.80;;
43345;SDS011;28937;51.160;4.146;2023-04-24T11:27:47;15.57;;;8.18;;
43345;SDS011;28937;51.160;4.146;2023-04-24T11:30:18;11.70;;;5.63;;
43345;SDS011;28937;51.160;4.146;2023-04-24T11:32:48;13.60;;;5.90;;
43345;SDS011;28937;51.160;4.146;2023-04-24T11:35:19;7.72;;;2.80;;
43345;SDS011;28937;51.160;4.146;2023-04-24T11:37:49;5.88;;;2.28;;
43345;SDS011;28937;51.160;4.146;2023-04-24T11:40:16;6.18;;;3.13;;
43345;SDS011;28937;51.160;4.146;2023-04-24T11:42:51;5.50;;;2.63;;
43345;SDS011;28937;51.160;4.146;2023-04-24T11:45:24;8.32;;;2.65;;
43345;SDS011;28937;51.160;4.146;2023-04-24T11:47:51;6.97;;;2.50;;
43345;SDS011;28937;51.160;4.146;2023-04-24T11:50:19;8.23;;;2.72;;
43345;SDS011;28937;51.160;4.146;2023-04-24T11:52:47;2.88;;;1.73;;
43345;SDS011;28937;51.160;4.146;2023-04-24T11:57:39;5.85;;;2.13;;
43345;SDS011;28937;51.160;4.146;2023-04-24T12:00:14;8.38;;;2.75;;
43345;SDS011;28937;51.160;4.146;2023-04-24T12:02:41;5.40;;;2.30;;
43345;SDS011;28937;51.160;4.146;2023-04-24T12:05:07;5.18;;;2.20;;
43345;SDS011;28937;51.160;4.146;2023-04-24T12:07:39;6.93;;;2.42;;
43345;SDS011;28937;51.160;4.146;2023-04-24T12:10:10;5.80;;;2.75;;
43345;SDS011;28937;51.160;4.146;2023-04-24T12:12:36;5.78;;;2.50;;
43345;SDS011;28937;51.160;4.146;2023-04-24T12:15:01;3.88;;;1.73;;
43345;SDS011;28937;51.160;4.146;2023-04-24T12:17:33;5.07;;;1.60;;
43345;SDS011;28937;51.160;4.146;2023-04-24T12:20:00;7.18;;;2.65;;
43345;SDS011;28937;51.160;4.146;2023-04-24T12:22:42;4.78;;;2.13;;
43345;SDS011;28937;51.160;4.146;2023-04-24T12:25:12;4.03;;;1.85;;
43345;SDS011;28937;51.160;4.146;2023-04-24T12:27:44;6.07;;;1.73;;
43345;SDS011;28937;51.160;4.146;2023-04-24T12:30:14;6.13;;;1.70;;
43345;SDS011;28937;51.160;4.146;2023-04-24T12:32:47;6.22;;;1.70;;
43345;SDS011;28937;51.160;4.146;2023-04-24T12:35:22;5.35;;;1.85;;
43345;SDS011;28937;51.160;4.146;2023-04-24T12:37:48;4.13;;;1.55;;
43345;SDS011;28937;51.160;4.146;2023-04-24T12:40:15;3.75;;;1.80;;
43345;SDS011;28937;51.160;4.146;2023-04-24T12:42:42;5.88;;;2.00;;
43345;SDS011;28937;51.160;4.146;2023-04-24T12:45:12;6.57;;;1.70;;
43345;SDS011;28937;51.160;4.146;2023-04-24T12:47:39;7.40;;;1.60;;
43345;SDS011;28937;51.160;4.146;2023-04-24T12:50:06;6.15;;;1.92;;
43345;SDS011;28937;51.160;4.146;2023-04-24T12:52:33;5.82;;;1.77;;
43345;SDS011;28937;51.160;4.146;2023-04-24T12:54:59;5.03;;;1.67;;
43345;SDS011;28937;51.160;4.146;2023-04-24T12:57:26;4.45;;;1.17;;
43345;SDS011;28937;51.160;4.146;2023-04-24T12:59:56;4.70;;;1.58;;
43345;SDS011;28937;51.160;4.146;2023-04-24T13:02:27;2.90;;;1.10;;
43345;SDS011;28937;51.160;4.146;2023-04-24T13:04:55;4.88;;;1.60;;
43345;SDS011;28937;51.160;4.146;2023-04-24T13:07:21;3.58;;;1.10;;
43345;SDS011;28937;51.160;4.146;2023-04-24T13:09:47;3.83;;;1.17;;
43345;SDS011;28937;51.160;4.146;2023-04-24T13:12:14;5.32;;;1.75;;
43345;SDS011;28937;51.160;4.146;2023-04-24T13:14:40;4.95;;;1.20;;
43345;SDS011;28937;51.160;4.146;2023-04-24T13:17:06;3.50;;;1.23;;
43345;SDS011;28937;51.160;4.146;2023-04-24T13:19:37;3.95;;;1.10;;
43345;SDS011;28937;51.160;4.146;2023-04-24T13:22:03;2.65;;;1.15;;
43345;SDS011;28937;51.160;4.146;2023-04-24T13:24:29;4.28;;;0.90;;
43345;SDS011;28937;51.160;4.146;2023-04-24T13:26:56;4.53;;;0.93;;
43345;SDS011;28937;51.160;4.146;2023-04-24T13:29:22;2.10;;;0.95;;
43345;SDS011;28937;51.160;4.146;2023-04-24T13:31:49;2.25;;;0.70;;
43345;SDS011;28937;51.160;4.146;2023-04-24T13:34:16;3.40;;;0.90;;
43345;SDS011;28937;51.160;4.146;2023-04-24T13:36:42;3.08;;;0.85;;
43345;SDS011;28937;51.160;4.146;2023-04-24T13:39:08;3.30;;;0.90;;
43345;SDS011;28937;51.160;4.146;2023-04-24T13:41:33;3.33;;;0.90;;
43345;SDS011;28937;51.160;4.146;2023-04-24T13:44:01;3.55;;;1.00;;
43345;SDS011;28937;51.160;4.146;2023-04-24T13:46:27;4.40;;;1.38;;
43345;SDS011;28937;51.160;4.146;2023-04-24T13:48:53;4.28;;;1.17;;
43345;SDS011;28937;51.160;4.146;2023-04-24T13:51:19;2.92;;;0.88;;
43345;SDS011;28937;51.160;4.146;2023-04-24T13:53:44;4.38;;;0.98;;
43345;SDS011;28937;51.160;4.146;2023-04-24T13:56:10;5.13;;;1.40;;
43345;SDS011;28937;51.160;4.146;2023-04-24T13:58:37;5.03;;;1.10;;
43345;SDS011;28937;51.160;4.146;2023-04-24T14:01:03;4.00;;;1.23;;
43345;SDS011;28937;51.160;4.146;2023-04-24T14:03:29;4.22;;;0.73;;
43345;SDS011;28937;51.160;4.146;2023-04-24T14:05:54;3.65;;;1.25;;
43345;SDS011;28937;51.160;4.146;2023-04-24T14:08:20;2.20;;;0.73;;
43345;SDS011;28937;51.160;4.146;2023-04-24T14:10:46;7.00;;;0.95;;
43345;SDS011;28937;51.160;4.146;2023-04-24T14:13:11;3.28;;;0.75;;
43345;SDS011;28937;51.160;4.146;2023-04-24T14:15:37;2.53;;;0.68;;
43345;SDS011;28937;51.160;4.146;2023-04-24T14:18:03;6.13;;;1.33;;
43345;SDS011;28937;51.160;4.146;2023-04-24T14:20:29;3.63;;;0.90;;
43345;SDS011;28937;51.160;4.146;2023-04-24T14:22:55;2.90;;;0.68;;
43345;SDS011;28937;51.160;4.146;2023-04-24T14:25:24;3.45;;;0.98;;
43345;SDS011;28937;51.160;4.146;2023-04-24T14:27:50;5.43;;;0.77;;
43345;SDS011;28937;51.160;4.146;2023-04-24T14:30:16;2.00;;;0.73;;
43345;SDS011;28937;51.160;4.146;2023-04-24T14:32:42;3.75;;;1.10;;
43345;SDS011;28937;51.160;4.146;2023-04-24T14:35:08;7.40;;;1.77;;
43345;SDS011;28937;51.160;4.146;2023-04-24T14:37:33;5.97;;;1.38;;
43345;SDS011;28937;51.160;4.146;2023-04-24T14:40:00;6.57;;;1.50;;
43345;SDS011;28937;51.160;4.146;2023-04-24T14:42:26;4.05;;;0.90;;
43345;SDS011;28937;51.160;4.146;2023-04-24T14:44:53;10.23;;;2.53;;
43345;SDS011;28937;51.160;4.146;2023-04-24T14:47:19;7.85;;;2.15;;
43345;SDS011;28937;51.160;4.146;2023-04-24T14:49:46;3.78;;;1.10;;
43345;SDS011;28937;51.160;4.146;2023-04-24T14:52:13;5.03;;;1.40;;